createdAt,value
2023-01-11T00:11:58.729Z,450.5217391304348
2023-01-11T00:18:20.951Z,490.7959866220736
2023-01-11T00:24:44.127Z,452.72909698996654
2023-01-11T00:36:56.535Z,458.39799331103677
2023-01-11T00:43:19.812Z,456.4916387959866
2023-01-11T00:49:43.267Z,429.6923076923077
2023-01-11T00:56:05.805Z,476.2675585284281
2023-01-11T01:02:28.277Z,513.3210702341137
2023-01-11T01:08:51.388Z,482.68896321070235
2023-01-11T01:15:13.937Z,506.10702341137124
2023-01-11T01:21:37.082Z,495.1404682274248
2023-01-11T01:27:59.740Z,527.1371237458194
2023-01-11T01:34:21.964Z,497.3076923076923
2023-01-11T01:40:44.853Z,504.371237458194
2023-01-11T01:47:07.753Z,530.7190635451504
2023-01-11T01:53:30.171Z,534.4314381270902
2023-01-11T01:59:54.111Z,526.6454849498327
2023-01-11T02:11:08.876Z,575.0468227424749
2023-01-11T02:17:30.559Z,573.581939799331
2023-01-11T02:33:35.005Z,559.866220735786
2023-01-11T02:39:57.592Z,495.8628762541806
2023-01-11T02:48:45.905Z,579.4414715719064
2023-01-11T02:55:07.487Z,567.2909698996656
2023-01-11T03:01:29.423Z,581.9698996655518
2023-01-11T03:07:52.627Z,590.7290969899666
2023-01-11T03:14:15.119Z,547.5852842809364
2023-01-11T03:31:40.726Z,493.4448160535117
2023-01-11T03:38:03.998Z,487.494983277592
2023-01-11T03:44:27.499Z,497.6588628762542
2023-01-11T03:50:49.951Z,498.89297658862876
2023-01-11T03:57:11.537Z,495.4816053511706
2023-01-11T04:03:34.221Z,510.10033444816054
2023-01-11T04:09:57.523Z,504.5819397993311
2023-01-11T04:16:18.887Z,465.0
2023-01-11T04:22:41.448Z,461.72909698996654
2023-01-11T04:29:04.049Z,481.9364548494983
2023-01-11T04:35:26.612Z,432.3511705685619
2023-01-11T04:41:49.771Z,447.89297658862876
2023-01-11T04:48:12.484Z,490.47491638795987
2023-01-11T04:54:34.699Z,429.5117056856187
2023-01-11T05:00:57.594Z,443.066889632107
2023-01-11T05:07:20.657Z,438.05016722408027
2023-01-11T05:13:43.767Z,422.55852842809367
2023-01-11T05:20:06.262Z,417.24080267558526
2023-01-11T05:26:29.242Z,396.74247491638795
2023-01-11T05:32:51.220Z,438.8528428093646
2023-01-11T05:39:43.367Z,476.29765886287623
2023-01-11T05:50:05.511Z,449.18729096989966
2023-01-11T05:56:28.431Z,469.58528428093643
2023-01-11T06:02:51.091Z,469.19397993311037
2023-01-11T06:16:06.673Z,519.5117056856187
2023-01-11T06:22:32.516Z,554.5083612040133
2023-01-11T06:28:57.131Z,550.304347826087
2023-01-11T06:35:19.302Z,548.8896321070234
2023-01-11T06:41:41.192Z,521.819397993311
2023-01-11T06:48:04.130Z,557.5585284280936
2023-01-11T06:54:26.659Z,553.7056856187291
2023-01-11T07:00:48.870Z,571.4347826086956
2023-01-11T07:09:43.802Z,602.2876254180602
2023-01-11T07:24:19.482Z,718.304347826087
2023-01-11T07:30:56.866Z,714.8026755852843
2023-01-11T07:37:28.845Z,808.886287625418
2023-01-11T07:43:53.892Z,831.3411371237459
2023-01-11T08:01:11.241Z,852.3511705685619
2023-01-11T08:07:34.386Z,744.0301003344482
2023-01-11T08:17:13.794Z,244.8963210702341
2023-01-11T08:23:37.480Z,216.6722408026756
2023-01-11T08:30:03.705Z,270.7926421404682
2023-01-11T08:36:29.317Z,303.3411371237458
2023-01-11T08:50:04.013Z,236.35785953177256
2023-01-11T09:08:30.463Z,310.80602006688963
2023-01-11T09:21:18.504Z,353.23745819397993
2023-01-11T09:27:43.932Z,412.2842809364549
2023-01-11T09:34:09.420Z,422.0066889632107
2023-01-11T09:40:34.073Z,440.066889632107
2023-01-11T09:52:23.894Z,568.2040133779265
2023-01-11T09:58:49.137Z,474.38127090301003
2023-01-11T10:23:43.823Z,870.190635451505
2023-01-11T10:32:59.504Z,912.1505016722408
2023-01-11T10:39:25.000Z,998.5384615384615
2023-01-11T10:45:50.868Z,967.85618729097
2023-01-11T10:52:16.175Z,1032.6321070234114
2023-01-11T11:02:32.839Z,1026.38127090301
2023-01-11T11:08:58.150Z,1043.5986622073578
2023-01-11T11:20:13.040Z,1034.0969899665552
2023-01-11T11:26:38.749Z,1087.685618729097
2023-01-11T11:35:05.585Z,1204.7658862876253
2023-01-11T11:41:30.498Z,917.8595317725752
2023-01-11T11:47:56.104Z,823.3244147157191
2023-01-11T11:54:22.078Z,857.6488294314381
2023-01-11T12:00:46.638Z,694.14381270903
2023-01-11T12:11:55.232Z,626.3678929765887
2023-01-11T12:22:24.634Z,665.5986622073578
2023-01-11T12:30:33.137Z,638.3277591973244
2023-01-11T12:36:59.054Z,562.5953177257525
2023-01-11T12:43:24.250Z,552.9531772575251
2023-01-11T12:56:12.482Z,494.27759197324417
2023-01-11T13:02:37.797Z,501.561872909699
2023-01-11T13:09:03.077Z,446.7792642140468
2023-01-11T13:26:01.028Z,683.1973244147157
2023-01-11T13:33:08.166Z,756.0802675585285
2023-01-11T13:44:44.761Z,693.3311036789298
2023-01-11T13:53:21.075Z,646.9565217391304
2023-01-11T14:04:50.182Z,563.9197324414715
2023-01-11T14:11:14.494Z,595.7458193979933
2023-01-11T14:23:14.966Z,618.3010033444816
2023-01-11T14:30:16.318Z,676.4648829431438
2023-01-11T14:36:44.006Z,646.1036789297659
2023-01-11T14:43:08.960Z,688.3645484949833
2023-01-11T14:55:20.809Z,583.4046822742475
2023-01-11T15:13:38.435Z,591.6521739130435
2023-01-11T15:20:06.060Z,539.5484949832776
2023-01-11T15:26:28.346Z,610.2240802675585
2023-01-11T15:32:50.460Z,552.6521739130435
2023-01-11T15:39:14.020Z,554.9498327759197
2023-01-11T15:45:36.475Z,547.9264214046823
2023-01-11T15:51:59.567Z,541.6454849498327
2023-01-11T15:58:23.939Z,518.7591973244147
2023-01-11T16:04:46.862Z,515.9799331103679
2023-01-11T16:11:09.531Z,445.5150501672241
2023-01-11T16:17:48.941Z,481.74581939799333
2023-01-11T16:24:11.805Z,478.46488294314383
2023-01-11T16:30:34.107Z,515.0869565217391
2023-01-11T16:36:57.216Z,566.1672240802676
2023-01-11T16:43:19.584Z,612.6220735785953
2023-01-11T16:49:43.014Z,673.314381270903
2023-01-11T16:56:05.766Z,693.8127090301003
2023-01-11T17:02:27.818Z,718.4147157190636
2023-01-11T17:08:50.057Z,810.9531772575251
2023-01-11T17:15:11.944Z,862.7759197324415
2023-01-11T17:21:35.065Z,852.9030100334448
2023-01-11T17:27:57.672Z,808.0234113712374
2023-01-11T17:36:23.380Z,890.0869565217391
2023-01-11T17:42:45.977Z,941.0668896321071
2023-01-11T17:49:08.417Z,948.1304347826087
2023-01-11T17:55:31.415Z,926.628762541806
2023-01-11T18:01:53.736Z,886.2742474916388
2023-01-11T18:08:16.463Z,823.0535117056857
2023-01-11T18:14:43.743Z,800.3578595317725
2023-01-11T18:21:06.242Z,719.9799331103679
2023-01-11T18:29:14.884Z,659.1672240802676
2023-01-11T18:35:55.941Z,732.7826086956521
2023-01-11T18:43:06.273Z,954.4314381270902
2023-01-11T18:50:58.868Z,1304.9899665551839
2023-01-11T18:57:28.508Z,834.371237458194
2023-01-11T19:04:26.965Z,799.3946488294314
2023-01-11T19:14:27.668Z,724.2642140468228
2023-01-11T19:21:02.788Z,675.9933110367894
2023-01-11T19:27:35.433Z,701.7391304347826
2023-01-11T19:34:18.372Z,740.4983277591973
2023-01-11T19:50:22.964Z,764.5685618729098
2023-01-11T19:56:54.808Z,777.8428093645485
2023-01-11T20:03:26.036Z,771.5919732441472
2023-01-11T20:17:11.218Z,675.6020066889632
2023-01-11T20:24:20.623Z,682.5050167224081
2023-01-11T20:35:30.376Z,659.7090301003344
2023-01-11T20:43:02.438Z,669.7926421404683
2023-01-11T20:49:45.097Z,651.4113712374582
2023-01-11T20:56:14.582Z,654.7324414715719
2023-01-11T21:02:45.613Z,653.4080267558528
2023-01-11T21:12:31.815Z,607.685618729097
2023-01-11T21:19:09.265Z,536.7391304347826
2023-01-11T21:25:41.564Z,525.8829431438127
2023-01-11T21:32:16.292Z,494.40802675585286
2023-01-11T21:38:49.310Z,515.6989966555184
2023-01-11T21:45:20.946Z,428.1471571906354
2023-01-11T21:51:53.964Z,427.4347826086956
2023-01-11T21:59:07.906Z,449.9397993311037
2023-01-11T22:05:37.188Z,411.8528428093646
2023-01-11T22:12:14.342Z,427.6655518394649
2023-01-11T22:18:57.639Z,438.81270903010034
2023-01-11T22:25:29.759Z,373.2341137123746
2023-01-11T22:32:01.467Z,374.8695652173913
2023-01-11T22:38:32.825Z,365.3076923076923
2023-01-11T22:54:12.912Z,367.0133779264214
2023-01-11T23:12:30.271Z,377.96989966555185
2023-01-11T23:19:22.216Z,364.39464882943145
2023-01-11T23:26:11.976Z,326.438127090301
2023-01-11T23:32:53.756Z,326.9297658862876
2023-01-11T23:39:32.771Z,340.60535117056855
2023-01-11T23:46:26.046Z,387.2006688963211
2023-01-11T23:53:04.866Z,382.5652173913044
2023-01-11T23:59:59.066Z,426.9732441471572
